Time;durP1;ratioP1;P1;durP2;ratioP2;P2;SDS_P1;SDS_P2;PMS_P1;PMS_P2;Temp;Humidity;BMP_temperature;BMP_pressure;BME280_temperature;BME280_humidity;BME280_pressure;Samples;Min_cycle;Max_cycle;Signal;HPM_P1;HPM_P2
2024/02/10 00:01:01;;;;;;;12.40;7.33;;;11.80;99.90;;;;;;5038546;28;20404;-73
2024/02/10 00:03:28;;;;;;;13.80;7.23;;;11.80;99.90;;;;;;5022647;28;20400;-73
2024/02/10 00:05:54;;;;;;;7.65;4.32;;;11.70;99.90;;;;;;5022619;28;20630;-71
2024/02/10 00:08:22;;;;;;;6.60;2.80;;;11.60;99.90;;;;;;5021495;28;20401;-71
2024/02/10 00:10:48;;;;;;;4.60;2.85;;;11.50;98.80;;;;;;5020586;28;20385;-75
2024/02/10 00:13:15;;;;;;;4.85;2.60;;;11.40;99.90;;;;;;5020675;28;20392;-72
2024/02/10 00:15:41;;;;;;;5.47;2.90;;;11.40;99.90;;;;;;5020963;28;20381;-72
2024/02/10 00:18:10;;;;;;;7.80;3.60;;;11.20;99.90;;;;;;5021392;28;20404;-72
2024/02/10 00:20:36;;;;;;;6.78;4.10;;;11.10;99.90;;;;;;5020799;28;20400;-74
2024/02/10 00:23:04;;;;;;;4.97;3.92;;;11.30;99.90;;;;;;5022144;28;20385;-74
2024/02/10 00:25:31;;;;;;;6.65;2.60;;;11.40;99.90;;;;;;5022646;28;20388;-75
2024/02/10 00:28:00;;;;;;;4.80;2.40;;;11.30;99.90;;;;;;5021744;28;20415;-73
2024/02/10 00:30:29;;;;;;;5.68;2.75;;;11.30;99.90;;;;;;5021232;28;20385;-73
2024/02/10 00:32:56;;;;;;;4.97;3.45;;;11.10;99.90;;;;;;5018371;28;20451;-73
2024/02/10 00:35:22;;;;;;;5.53;3.90;;;11.00;99.90;;;;;;5019739;28;20528;-75
2024/02/10 00:37:49;;;;;;;12.32;7.38;;;10.90;99.90;;;;;;5019219;28;20381;-73
2024/02/10 00:40:15;;;;;;;15.45;9.00;;;11.00;99.90;;;;;;5018957;28;20447;-74
2024/02/10 00:42:40;;;;;;;13.90;8.73;;;11.10;99.90;;;;;;5018033;28;20393;-72
2024/02/10 00:45:07;;;;;;;14.35;8.90;;;11.10;99.90;;;;;;5017805;28;20645;-72
2024/02/10 00:47:34;;;;;;;16.10;9.20;;;11.10;99.90;;;;;;5017932;28;20419;-72
2024/02/10 00:50:01;;;;;;;18.30;10.52;;;11.00;99.90;;;;;;5015591;28;20439;-71
2024/02/10 00:52:27;;;;;;;19.23;11.30;;;11.10;99.90;;;;;;5015415;28;20481;-71
2024/02/10 00:54:53;;;;;;;19.70;11.60;;;11.10;99.90;;;;;;5016559;28;20389;-73
2024/02/10 00:57:19;;;;;;;18.45;12.13;;;11.20;99.90;;;;;;5019064;28;20454;-73
2024/02/10 00:59:45;;;;;;;18.33;12.25;;;11.20;99.90;;;;;;5021597;28;20573;-72
2024/02/10 01:02:17;;;;;;;26.35;13.40;;;11.20;99.90;;;;;;5021018;28;20381;-73
2024/02/10 01:04:46;;;;;;;18.73;12.45;;;11.20;99.90;;;;;;5021212;28;20631;-72
2024/02/10 01:07:14;;;;;;;21.23;12.63;;;11.10;99.90;;;;;;5020340;28;20443;-73
2024/02/10 01:09:40;;;;;;;23.75;13.00;;;11.10;99.90;;;;;;5021581;28;20389;-73
2024/02/10 01:12:06;;;;;;;21.27;13.30;;;11.10;99.90;;;;;;5021703;28;20453;-72
2024/02/10 01:14:32;;;;;;;21.65;11.93;;;11.00;99.90;;;;;;5019693;28;20401;-72
2024/02/10 01:16:58;;;;;;;20.00;11.95;;;11.00;99.90;;;;;;5021095;28;20409;-74
2024/02/10 01:19:27;;;;;;;18.20;11.25;;;11.00;99.90;;;;;;5018811;28;20451;-71
2024/02/10 01:21:54;;;;;;;22.67;11.40;;;11.00;99.90;;;;;;5012693;28;20396;-72
2024/02/10 01:24:21;;;;;;;20.88;12.80;;;11.10;99.90;;;;;;5012277;28;20385;-72
2024/02/10 01:26:47;;;;;;;25.83;13.30;;;11.00;99.90;;;;;;5012408;28;20753;-71
2024/02/10 01:29:12;;;;;;;25.92;14.07;;;11.00;99.90;;;;;;5012281;28;20484;-71
2024/02/10 01:31:41;;;;;;;21.35;13.25;;;11.00;99.90;;;;;;5012202;28;20385;-72
2024/02/10 01:34:08;;;;;;;21.05;12.30;;;11.00;99.90;;;;;;5014871;28;20961;-72
2024/02/10 01:36:34;;;;;;;24.67;13.07;;;11.00;99.90;;;;;;5016297;28;20393;-72
2024/02/10 01:39:01;;;;;;;21.80;12.00;;;11.00;99.90;;;;;;5011536;28;20464;-71
2024/02/10 01:41:29;;;;;;;17.55;10.80;;;11.00;99.90;;;;;;5011791;28;20381;-70
2024/02/10 01:43:55;;;;;;;18.98;11.00;;;11.10;99.90;;;;;;5011284;28;20396;-71
2024/02/10 01:46:24;;;;;;;19.90;10.90;;;11.00;99.90;;;;;;5012189;28;20389;-72
2024/02/10 01:48:50;;;;;;;16.33;10.38;;;11.00;99.90;;;;;;5034927;28;20772;-73
2024/02/10 01:51:18;;;;;;;16.17;9.05;;;11.00;99.90;;;;;;5013535;28;20463;-71
2024/02/10 01:53:45;;;;;;;16.63;9.40;;;11.00;99.90;;;;;;5011261;28;20380;-71
2024/02/10 01:56:16;;;;;;;16.10;9.85;;;11.00;99.90;;;;;;5011723;28;20388;-72
2024/02/10 01:58:45;;;;;;;15.95;10.00;;;11.00;99.90;;;;;;5011129;28;20420;-72
2024/02/10 02:01:15;;;;;;;19.73;9.02;;;11.00;99.90;;;;;;5011885;28;20894;-72
2024/02/10 02:03:43;;;;;;;14.57;9.20;;;11.00;99.90;;;;;;5011602;28;20407;-73
2024/02/10 02:06:11;;;;;;;13.07;9.00;;;11.00;99.90;;;;;;5012642;28;20420;-72
2024/02/10 02:08:39;;;;;;;12.82;8.00;;;11.00;99.90;;;;;;5012863;28;20468;-73
2024/02/10 02:11:05;;;;;;;13.57;8.55;;;11.00;99.90;;;;;;5014367;28;20391;-73
2024/02/10 02:13:31;;;;;;;15.02;8.10;;;11.00;99.90;;;;;;5017916;28;20463;-73
2024/02/10 02:15:58;;;;;;;10.30;8.00;;;11.00;99.90;;;;;;5031499;28;20921;-72
2024/02/10 02:18:24;;;;;;;13.73;8.00;;;11.00;99.90;;;;;;5030091;22;20434;-75
2024/02/10 02:20:50;;;;;;;12.38;8.65;;;10.90;99.90;;;;;;4995305;28;20393;-75
2024/02/10 02:23:19;;;;;;;12.30;7.53;;;10.90;99.90;;;;;;4994317;28;20390;-75
2024/02/10 02:25:48;;;;;;;12.00;7.50;;;10.90;99.90;;;;;;4993811;28;20389;-77
2024/02/10 02:28:17;;;;;;;12.07;7.07;;;10.90;99.90;;;;;;4994163;28;20413;-75
2024/02/10 02:30:43;;;;;;;10.95;7.50;;;10.90;99.90;;;;;;4993141;28;20378;-76
2024/02/10 02:33:10;;;;;;;11.77;7.17;;;10.90;99.90;;;;;;4997862;28;20454;-76
2024/02/10 02:35:38;;;;;;;10.00;6.63;;;10.80;99.90;;;;;;5000488;28;20429;-74
2024/02/10 02:38:04;;;;;;;10.70;6.22;;;10.80;99.90;;;;;;5005419;28;20810;-74
2024/02/10 02:40:30;;;;;;;9.18;5.85;;;10.80;99.90;;;;;;5000709;28;20418;-74
2024/02/10 02:42:59;;;;;;;7.60;5.83;;;10.80;99.90;;;;;;4994713;28;20409;-76
2024/02/10 02:45:27;;;;;;;11.60;6.30;;;10.90;99.90;;;;;;4996562;28;20871;-76
2024/02/10 02:47:56;;;;;;;8.60;6.10;;;10.90;99.90;;;;;;4996606;28;20406;-75
2024/02/10 02:50:24;;;;;;;8.38;5.82;;;10.90;99.90;;;;;;4997233;28;20389;-75
2024/02/10 02:52:50;;;;;;;10.43;6.63;;;10.80;99.90;;;;;;4996064;28;20445;-75
2024/02/10 02:55:15;;;;;;;10.93;6.50;;;10.70;99.90;;;;;;4996498;28;20788;-75
2024/02/10 02:57:42;;;;;;;8.63;6.00;;;10.70;99.90;;;;;;4995893;28;20386;-74
2024/02/10 03:00:08;;;;;;;12.45;6.10;;;10.70;99.90;;;;;;4995809;28;20382;-75
2024/02/10 03:02:38;;;;;;;9.00;6.00;;;10.60;99.90;;;;;;4995065;28;20398;-74
2024/02/10 03:05:04;;;;;;;8.95;5.65;;;10.60;99.90;;;;;;4995559;28;20390;-75
2024/02/10 03:07:30;;;;;;;9.70;5.82;;;10.50;99.90;;;;;;4995862;28;20489;-75
2024/02/10 03:09:56;;;;;;;7.70;5.60;;;10.50;99.90;;;;;;4995986;28;20463;-75
2024/02/10 03:12:22;;;;;;;8.50;5.70;;;10.50;99.90;;;;;;4999812;28;20386;-75
2024/02/10 03:14:47;;;;;;;8.10;5.38;;;10.50;99.90;;;;;;4995087;28;20409;-75
2024/02/10 03:17:14;;;;;;;9.05;5.25;;;10.50;99.90;;;;;;4995407;28;20403;-75
2024/02/10 03:19:45;;;;;;;9.75;5.15;;;10.50;99.90;;;;;;4993738;28;20477;-76
2024/02/10 03:22:12;;;;;;;7.97;5.07;;;10.60;99.90;;;;;;4995524;28;20431;-75
2024/02/10 03:24:38;;;;;;;5.80;4.60;;;10.70;99.90;;;;;;4995019;28;20394;-75
2024/02/10 03:27:04;;;;;;;7.25;5.00;;;10.60;99.90;;;;;;4994493;28;20816;-76
2024/02/10 03:29:30;;;;;;;5.93;4.32;;;10.60;99.90;;;;;;4995051;28;20390;-76
2024/02/10 03:31:56;;;;;;;7.73;5.03;;;10.60;99.90;;;;;;4995235;28;20398;-75
2024/02/10 03:34:22;;;;;;;6.00;4.53;;;10.50;99.90;;;;;;4995130;28;20385;-75
2024/02/10 03:36:50;;;;;;;10.00;5.10;;;10.60;99.90;;;;;;4994797;28;20386;-74
2024/02/10 03:39:16;;;;;;;6.13;4.65;;;10.50;99.90;;;;;;4994332;28;20390;-74
2024/02/10 03:41:42;;;;;;;5.60;5.00;;;10.50;99.90;;;;;;4994613;28;20487;-74
2024/02/10 03:44:07;;;;;;;7.40;4.60;;;10.50;99.90;;;;;;4994228;28;20389;-75
2024/02/10 03:46:33;;;;;;;5.67;5.07;;;10.40;99.90;;;;;;4994342;28;20394;-75
2024/02/10 03:48:59;;;;;;;5.68;4.50;;;10.40;99.90;;;;;;4994463;28;20392;-75
2024/02/10 03:51:25;;;;;;;8.32;4.90;;;10.30;99.90;;;;;;4994846;28;20437;-75
2024/02/10 03:53:51;;;;;;;7.03;4.70;;;10.20;99.90;;;;;;4993558;28;20433;-74
2024/02/10 03:56:17;;;;;;;5.50;4.23;;;10.10;99.90;;;;;;4992599;28;20426;-75
2024/02/10 03:58:43;;;;;;;8.48;4.80;;;10.00;99.90;;;;;;4994447;28;20390;-76
2024/02/10 04:01:15;;;;;;;8.27;5.07;;;9.90;99.90;;;;;;4993995;28;20848;-75
2024/02/10 04:03:42;;;;;;;6.23;4.47;;;9.90;99.90;;;;;;4993826;28;20394;-75
2024/02/10 04:06:11;;;;;;;6.35;4.38;;;9.80;99.90;;;;;;4993932;28;20409;-75
2024/02/10 04:08:37;;;;;;;5.68;4.50;;;9.70;99.90;;;;;;4992539;28;20421;-76
2024/02/10 04:11:06;;;;;;;7.88;4.68;;;9.70;99.90;;;;;;4994742;28;20869;-76
2024/02/10 04:13:33;;;;;;;5.75;4.60;;;9.60;99.90;;;;;;4995349;28;20391;-76
2024/02/10 04:15:59;;;;;;;9.07;4.60;;;9.60;99.90;;;;;;4994776;28;20390;-77
2024/02/10 04:18:27;;;;;;;8.13;4.70;;;9.60;99.90;;;;;;4995625;28;20494;-76
2024/02/10 04:20:54;;;;;;;8.90;4.90;;;9.60;99.90;;;;;;4999876;28;20465;-75
2024/02/10 04:23:19;;;;;;;9.98;4.80;;;9.60;99.90;;;;;;5005067;28;20413;-76
2024/02/10 04:25:45;;;;;;;7.97;4.90;;;9.50;99.90;;;;;;5007374;28;20949;-76
2024/02/10 04:28:10;;;;;;;6.57;4.80;;;9.50;99.90;;;;;;5005342;28;20410;-76
2024/02/10 04:30:36;;;;;;;5.45;4.90;;;9.40;99.90;;;;;;4994043;28;20390;-75
2024/02/10 04:33:02;;;;;;;7.18;4.57;;;9.40;99.90;;;;;;4993949;28;20387;-76
2024/02/10 04:35:27;;;;;;;6.60;4.65;;;9.40;99.90;;;;;;4993656;28;20382;-75
2024/02/10 04:37:53;;;;;;;5.00;4.30;;;9.40;99.90;;;;;;4993637;28;20386;-76
2024/02/10 04:40:23;;;;;;;6.43;4.28;;;9.40;99.90;;;;;;4993428;28;20401;-76
2024/02/10 04:42:50;;;;;;;8.35;5.07;;;9.30;99.90;;;;;;4991889;28;20386;-76
2024/02/10 04:45:24;;;;;;;6.70;4.40;;;9.20;99.90;;;;;;4992712;28;20983;-76
2024/02/10 04:47:51;;;;;;;5.78;4.63;;;9.20;99.90;;;;;;4993712;28;20421;-76
2024/02/10 04:50:17;;;;;;;6.10;4.30;;;9.20;99.90;;;;;;4995859;28;20399;-76
2024/02/10 04:52:43;;;;;;;5.15;4.15;;;9.10;99.90;;;;;;4997539;28;20397;-75
2024/02/10 04:55:09;;;;;;;5.20;4.50;;;9.10;99.90;;;;;;4998158;28;20390;-76
2024/02/10 04:57:35;;;;;;;5.43;4.60;;;9.10;99.90;;;;;;4996222;28;20770;-76
2024/02/10 05:00:12;;;;;;;7.80;5.30;;;9.10;99.90;;;;;;4997042;28;20405;-76
2024/02/10 05:02:38;;;;;;;7.57;4.93;;;9.00;99.90;;;;;;4996511;28;20386;-75
2024/02/10 05:05:07;;;;;;;7.75;4.90;;;8.90;99.90;;;;;;4996169;28;20533;-77
2024/02/10 05:07:32;;;;;;;8.98;5.75;;;9.00;99.90;;;;;;4995231;28;20461;-74
2024/02/10 05:10:00;;;;;;;5.30;4.75;;;8.90;99.90;;;;;;4993639;28;20792;-73
2024/02/10 05:12:26;;;;;;;6.90;5.10;;;8.90;99.90;;;;;;4999927;28;20393;-73
2024/02/10 05:14:52;;;;;;;6.00;5.00;;;8.90;99.90;;;;;;4993902;28;20418;-72
2024/02/10 05:17:19;;;;;;;6.95;4.82;;;8.80;99.90;;;;;;4998008;28;20559;-72
2024/02/10 05:19:44;;;;;;;4.97;4.47;;;8.90;99.90;;;;;;4992862;28;20913;-73
2024/02/10 05:22:13;;;;;;;7.68;5.25;;;8.80;99.90;;;;;;4992956;28;20430;-73
2024/02/10 05:24:46;;;;;;;5.40;4.70;;;8.90;99.90;;;;;;4992913;28;20478;-72
2024/02/10 05:27:12;;;;;;;7.50;5.60;;;8.90;99.90;;;;;;4993100;28;20865;-71
2024/02/10 05:29:38;;;;;;;6.45;5.18;;;8.90;99.90;;;;;;4992315;28;20402;-72
2024/02/10 05:32:05;;;;;;;5.43;4.53;;;8.90;99.90;;;;;;4991815;28;20441;-75
2024/02/10 05:34:31;;;;;;;6.70;5.40;;;8.80;99.90;;;;;;4991447;28;20390;-73
2024/02/10 05:37:00;;;;;;;6.33;5.40;;;8.80;99.90;;;;;;4991783;28;20453;-73
2024/02/10 05:39:28;;;;;;;8.77;5.70;;;8.80;99.90;;;;;;4992163;28;20445;-73
2024/02/10 05:41:54;;;;;;;7.18;5.50;;;8.80;99.90;;;;;;4991942;28;20651;-73
2024/02/10 05:44:22;;;;;;;9.77;5.67;;;8.80;99.90;;;;;;4991118;28;20401;-74
2024/02/10 05:46:48;;;;;;;8.55;5.63;;;8.80;99.90;;;;;;4991476;28;20409;-73
2024/02/10 05:49:13;;;;;;;8.45;5.60;;;8.80;99.90;;;;;;4991633;28;20383;-72
2024/02/10 05:51:39;;;;;;;5.70;5.00;;;8.80;99.90;;;;;;4991362;28;20405;-73
2024/02/10 05:54:05;;;;;;;8.50;5.37;;;8.80;99.90;;;;;;4991383;28;20436;-72
2024/02/10 05:56:33;;;;;;;7.95;5.50;;;8.70;99.90;;;;;;4991298;28;20398;-74
2024/02/10 05:58:59;;;;;;;6.30;5.47;;;8.80;99.90;;;;;;4991449;28;20386;-73
2024/02/10 06:01:24;;;;;;;12.10;6.20;;;8.80;99.90;;;;;;4991648;28;20394;-73
2024/02/10 06:03:52;;;;;;;9.07;5.57;;;8.80;99.90;;;;;;4991400;28;20804;-73
2024/02/10 06:06:19;;;;;;;8.68;5.70;;;8.70;99.90;;;;;;4991341;28;20722;-72
2024/02/10 06:08:45;;;;;;;7.07;5.80;;;8.70;99.90;;;;;;4991553;28;20422;-73
2024/02/10 06:11:11;;;;;;;9.23;6.63;;;8.60;99.90;;;;;;4991434;28;20378;-72
2024/02/10 06:13:37;;;;;;;8.70;6.43;;;8.60;99.90;;;;;;4989878;28;20394;-73
2024/02/10 06:16:05;;;;;;;6.72;5.90;;;8.60;99.90;;;;;;4992243;28;20387;-72
2024/02/10 06:18:33;;;;;;;7.32;5.70;;;8.60;99.90;;;;;;4994367;28;20845;-72
2024/02/10 06:20:59;;;;;;;8.82;6.22;;;8.60;99.90;;;;;;4995508;28;20385;-72
2024/02/10 06:23:30;;;;;;;9.13;5.72;;;8.60;99.90;;;;;;4993996;28;20711;-71
2024/02/10 06:25:56;;;;;;;8.77;6.60;;;8.60;99.90;;;;;;4997569;28;20390;-72
2024/02/10 06:28:22;;;;;;;10.80;6.20;;;8.60;99.90;;;;;;4994650;28;20421;-73
2024/02/10 06:30:51;;;;;;;8.15;6.20;;;8.60;99.90;;;;;;4994966;28;20414;-72
2024/02/10 06:33:30;;;;;;;8.10;6.50;;;8.60;99.90;;;;;;4994655;28;20382;-73
2024/02/10 06:36:00;;;;;;;8.82;6.03;;;8.60;99.90;;;;;;4994912;28;20427;-71
2024/02/10 06:38:32;;;;;;;7.00;6.20;;;8.60;99.90;;;;;;4994718;28;20402;-72
2024/02/10 06:41:02;;;;;;;10.15;5.95;;;8.60;99.90;;;;;;4994982;28;20869;-70
2024/02/10 06:43:28;;;;;;;9.30;6.28;;;8.50;99.90;;;;;;4994662;28;20390;-72
2024/02/10 06:46:00;;;;;;;9.02;6.40;;;8.50;99.90;;;;;;4995139;28;20841;-74
2024/02/10 06:48:26;;;;;;;8.88;6.50;;;8.50;99.90;;;;;;4994971;28;20426;-75
2024/02/10 06:50:54;;;;;;;7.28;6.50;;;8.60;99.90;;;;;;4995933;28;20794;-75
2024/02/10 06:53:20;;;;;;;8.53;5.80;;;8.60;99.90;;;;;;4998372;28;20525;-74
2024/02/10 06:55:45;;;;;;;12.00;6.53;;;8.60;99.90;;;;;;5003777;28;20926;-75
2024/02/10 06:58:11;;;;;;;9.10;6.50;;;8.60;99.90;;;;;;4994587;28;20395;-74
2024/02/10 07:00:40;;;;;;;8.75;6.75;;;8.50;99.90;;;;;;5007392;28;20393;-75
2024/02/10 07:03:06;;;;;;;9.00;6.90;;;8.50;99.90;;;;;;5014880;28;20392;-76
2024/02/10 07:05:33;;;;;;;7.38;5.90;;;8.50;99.90;;;;;;4994241;28;20805;-77
2024/02/10 07:07:59;;;;;;;8.83;6.60;;;8.50;99.90;;;;;;4996566;28;20757;-77
2024/02/10 07:10:24;;;;;;;8.40;6.30;;;8.60;99.90;;;;;;5013904;28;20401;-76
2024/02/10 07:12:54;;;;;;;8.15;6.28;;;8.60;99.90;;;;;;5019365;28;20408;-74
2024/02/10 07:15:22;;;;;;;7.70;6.50;;;8.60;99.90;;;;;;5010627;28;20402;-78
2024/02/10 07:17:52;;;;;;;7.20;5.80;;;8.70;99.90;;;;;;5000001;28;20408;-76
2024/02/10 07:20:25;;;;;;;7.57;5.85;;;8.70;99.90;;;;;;4994548;28;20394;-76
2024/02/10 07:22:57;;;;;;;8.43;5.97;;;8.70;99.90;;;;;;4989443;28;20430;-76
2024/02/10 07:25:27;;;;;;;8.13;5.95;;;8.80;99.90;;;;;;4992557;28;20417;-77
2024/02/10 07:27:53;;;;;;;7.75;6.53;;;8.80;99.90;;;;;;5001874;28;20418;-77
2024/02/10 07:30:20;;;;;;;8.05;6.13;;;8.80;99.90;;;;;;4994704;28;20393;-76
2024/02/10 07:32:50;;;;;;;8.85;6.38;;;8.90;99.90;;;;;;4993506;28;20398;-75
2024/02/10 07:35:16;;;;;;;11.32;7.30;;;8.90;99.90;;;;;;4988327;28;20614;-73
2024/02/10 07:37:45;;;;;;;8.32;6.45;;;9.00;99.90;;;;;;4995156;28;20397;-75
2024/02/10 07:40:11;;;;;;;9.63;6.60;;;9.10;99.90;;;;;;5014348;28;20399;-75
2024/02/10 07:42:37;;;;;;;10.82;6.88;;;9.10;99.90;;;;;;5011336;28;20408;-75
2024/02/10 07:45:04;;;;;;;13.60;7.70;;;9.30;99.90;;;;;;5002603;28;20460;-75
2024/02/10 07:47:29;;;;;;;8.80;6.50;;;9.40;99.90;;;;;;5001280;28;20445;-75
2024/02/10 07:49:58;;;;;;;9.30;6.33;;;9.50;99.90;;;;;;4995050;28;20469;-74
2024/02/10 07:52:26;;;;;;;8.13;6.70;;;9.60;99.90;;;;;;4994173;28;20473;-73
2024/02/10 07:54:52;;;;;;;6.30;5.60;;;9.70;99.90;;;;;;4993961;28;20390;-75
2024/02/10 07:57:21;;;;;;;8.53;6.50;;;9.80;99.90;;;;;;4993781;28;20501;-74
2024/02/10 07:59:50;;;;;;;9.77;5.57;;;10.00;99.90;;;;;;4996258;28;20382;-77
2024/02/10 08:02:21;;;;;;;8.95;5.53;;;10.10;99.90;;;;;;4998571;28;20395;-76
2024/02/10 08:04:49;;;;;;;6.43;4.72;;;10.30;99.90;;;;;;4992270;28;20403;-76
2024/02/10 08:07:16;;;;;;;6.25;4.65;;;10.40;99.90;;;;;;4993593;28;20407;-77
2024/02/10 08:09:41;;;;;;;8.70;5.38;;;10.40;99.90;;;;;;4994348;28;20437;-76
2024/02/10 08:12:08;;;;;;;6.68;5.70;;;10.50;99.90;;;;;;4994315;28;20873;-77
2024/02/10 08:14:36;;;;;;;6.25;5.10;;;10.70;99.90;;;;;;4996151;28;20734;-77
2024/02/10 08:17:04;;;;;;;6.03;4.75;;;10.80;99.90;;;;;;4996962;28;20913;-77
2024/02/10 08:19:30;;;;;;;7.10;4.85;;;10.90;99.90;;;;;;4993572;28;20398;-77
2024/02/10 08:21:57;;;;;;;4.80;4.30;;;11.00;99.90;;;;;;4994777;28;20779;-78
2024/02/10 08:24:22;;;;;;;5.00;4.50;;;11.00;99.90;;;;;;4993806;28;20394;-77
2024/02/10 08:26:49;;;;;;;9.00;4.20;;;11.10;99.90;;;;;;4993209;28;20390;-77
2024/02/10 08:29:15;;;;;;;6.78;4.50;;;11.20;99.90;;;;;;4992981;28;20453;-77
2024/02/10 08:31:40;;;;;;;9.03;4.70;;;11.30;99.90;;;;;;4998110;28;20394;-76
2024/02/10 08:34:06;;;;;;;4.53;3.97;;;11.40;99.90;;;;;;4999114;28;20397;-77
2024/02/10 08:36:32;;;;;;;4.80;4.00;;;11.50;99.90;;;;;;4995913;28;20395;-77
2024/02/10 08:39:03;;;;;;;7.28;3.88;;;11.50;98.40;;;;;;4993631;28;20402;-76
2024/02/10 08:41:29;;;;;;;5.80;3.70;;;11.60;96.50;;;;;;4992696;28;20401;-75
2024/02/10 08:43:55;;;;;;;9.35;5.55;;;11.60;93.90;;;;;;4993235;28;20390;-75
2024/02/10 08:46:23;;;;;;;9.03;5.10;;;11.70;93.30;;;;;;4993693;28;20397;-73
2024/02/10 08:48:50;;;;;;;6.83;5.30;;;11.80;90.60;;;;;;4993080;28;20426;-75
2024/02/10 08:51:15;;;;;;;6.50;5.10;;;11.90;90.90;;;;;;4993264;28;20734;-74
2024/02/10 08:53:44;;;;;;;8.37;5.80;;;12.00;91.00;;;;;;4992722;28;20386;-73
2024/02/10 08:56:11;;;;;;;8.60;5.68;;;12.10;89.20;;;;;;4992592;28;20758;-75
2024/02/10 08:58:40;;;;;;;5.40;4.22;;;12.10;86.70;;;;;;4992291;28;20865;-72
2024/02/10 09:01:15;;;;;;;8.57;4.90;;;12.20;84.50;;;;;;5000473;28;20392;-74
2024/02/10 09:03:52;;;;;;;6.13;4.00;;;12.30;81.90;;;;;;4992701;28;20438;-72
2024/02/10 09:06:22;;;;;;;4.20;3.50;;;12.20;78.60;;;;;;5006305;28;20402;-72
2024/02/10 09:08:50;;;;;;;6.00;3.42;;;12.20;78.20;;;;;;5005539;28;20408;-75
2024/02/10 09:11:19;;;;;;;6.25;3.60;;;12.20;80.50;;;;;;5005775;28;20545;-74
2024/02/10 09:13:48;;;;;;;4.72;3.75;;;12.20;77.60;;;;;;4991888;28;20379;-72
2024/02/10 09:16:14;;;;;;;3.60;3.25;;;12.20;78.20;;;;;;4993262;28;20921;-73
2024/02/10 09:18:42;;;;;;;7.47;3.30;;;12.20;78.90;;;;;;5011823;28;20401;-73
2024/02/10 09:21:08;;;;;;;3.90;2.90;;;12.20;77.70;;;;;;4992752;28;21488;-72
2024/02/10 09:23:33;;;;;;;4.95;3.30;;;12.20;78.70;;;;;;4988885;28;20485;-75
2024/02/10 09:25:59;;;;;;;3.60;3.13;;;12.20;77.10;;;;;;4994472;28;20406;-72
2024/02/10 09:28:29;;;;;;;3.93;3.10;;;12.30;73.70;;;;;;5007776;28;21266;-75
2024/02/10 09:30:57;;;;;;;3.20;2.92;;;12.40;75.10;;;;;;5009291;28;20479;-77
2024/02/10 09:33:24;;;;;;;4.10;3.00;;;12.60;72.80;;;;;;5004026;28;20879;-75
2024/02/10 09:35:51;;;;;;;4.45;2.83;;;12.60;70.80;;;;;;4990401;28;20405;-75
2024/02/10 09:38:20;;;;;;;3.60;3.05;;;12.70;69.20;;;;;;5007260;28;20400;-75
2024/02/10 09:40:46;;;;;;;4.00;3.10;;;12.60;70.10;;;;;;4995722;28;20399;-75
2024/02/10 09:43:17;;;;;;;3.08;2.83;;;12.60;70.10;;;;;;4991940;28;20456;-75
2024/02/10 09:45:45;;;;;;;4.60;3.00;;;12.60;69.80;;;;;;4989621;28;20417;-76
2024/02/10 09:48:19;;;;;;;4.10;2.90;;;12.70;68.90;;;;;;4988143;28;20419;-74
2024/02/10 09:50:45;;;;;;;4.07;2.80;;;12.70;66.50;;;;;;4989483;28;20869;-74
2024/02/10 09:53:12;;;;;;;6.43;4.00;;;12.80;66.50;;;;;;4989556;28;20777;-75
2024/02/10 09:55:37;;;;;;;5.03;3.30;;;12.80;66.50;;;;;;5003750;28;20395;-75
2024/02/10 09:58:04;;;;;;;7.63;3.00;;;12.90;65.00;;;;;;5007528;28;20890;-75
2024/02/10 10:00:31;;;;;;;4.97;3.50;;;12.90;65.00;;;;;;4994278;28;20395;-75
2024/02/10 10:03:00;;;;;;;3.90;3.30;;;12.90;64.10;;;;;;4988797;28;20426;-75
2024/02/10 10:05:29;;;;;;;4.85;3.38;;;13.00;63.80;;;;;;4989017;28;20410;-75
2024/02/10 10:07:55;;;;;;;29.65;18.13;;;13.00;64.40;;;;;;4989919;28;20433;-75
2024/02/10 10:10:22;;;;;;;4.90;3.85;;;13.00;65.00;;;;;;4993598;28;20386;-75
2024/02/10 10:12:49;;;;;;;5.72;3.95;;;13.10;64.90;;;;;;4999088;28;20409;-76
2024/02/10 10:15:14;;;;;;;3.53;2.90;;;13.20;64.20;;;;;;4989017;28;20873;-76
2024/02/10 10:17:40;;;;;;;5.67;3.60;;;13.20;63.30;;;;;;4989346;28;20501;-75
2024/02/10 10:20:06;;;;;;;7.70;3.23;;;13.20;62.90;;;;;;4989298;28;20419;-75
2024/02/10 10:22:36;;;;;;;6.47;3.53;;;13.30;60.20;;;;;;4986531;28;20417;-74
2024/02/10 10:25:03;;;;;;;5.15;3.20;;;13.40;60.80;;;;;;5000063;28;20409;-75
2024/02/10 10:27:29;;;;;;;4.93;3.60;;;13.40;59.60;;;;;;5008236;28;20412;-76
2024/02/10 10:29:55;;;;;;;6.97;3.55;;;13.40;58.90;;;;;;5006309;28;20721;-76
2024/02/10 10:32:22;;;;;;;3.65;3.08;;;13.60;58.70;;;;;;5008809;28;20877;-76
2024/02/10 10:34:48;;;;;;;6.60;3.60;;;13.60;59.30;;;;;;5006721;28;20403;-74
2024/02/10 10:37:16;;;;;;;4.15;3.10;;;13.60;58.10;;;;;;5007266;28;20404;-75
2024/02/10 10:39:45;;;;;;;3.85;3.17;;;13.70;57.40;;;;;;5005715;28;20428;-76
2024/02/10 10:42:16;;;;;;;6.00;4.70;;;13.70;57.60;;;;;;5009172;28;20396;-75
2024/02/10 10:44:42;;;;;;;5.32;3.67;;;13.70;58.10;;;;;;5008505;28;20458;-75
2024/02/10 10:47:10;;;;;;;3.55;3.25;;;13.90;56.30;;;;;;5006347;28;20519;-75
2024/02/10 10:49:36;;;;;;;4.57;3.10;;;13.90;55.40;;;;;;5009613;28;20393;-75
2024/02/10 10:52:03;;;;;;;4.30;3.05;;;13.90;54.40;;;;;;5008512;28;20464;-75
2024/02/10 10:54:38;;;;;;;5.15;3.30;;;13.90;55.10;;;;;;5007647;28;20519;-76
2024/02/10 10:57:12;;;;;;;5.00;3.22;;;14.00;54.00;;;;;;5007746;28;20393;-75
2024/02/10 10:59:40;;;;;;;6.78;3.08;;;14.10;52.80;;;;;;5002227;28;20402;-75
2024/02/10 11:02:12;;;;;;;8.98;3.92;;;14.10;51.90;;;;;;4989345;28;20391;-74
2024/02/10 11:04:38;;;;;;;3.90;3.20;;;14.10;52.60;;;;;;5007307;28;20416;-76
2024/02/10 11:07:09;;;;;;;3.97;2.88;;;14.20;51.70;;;;;;5011239;28;20393;-76
2024/02/10 11:09:48;;;;;;;4.68;3.33;;;14.20;51.90;;;;;;5012786;28;20479;-74
2024/02/10 11:12:15;;;;;;;6.30;2.80;;;14.30;51.90;;;;;;4972864;28;20879;-75
2024/02/10 11:14:54;;;;;;;3.50;2.90;;;14.30;51.30;;;;;;5007670;28;20486;-76
2024/02/10 11:17:20;;;;;;;6.60;4.00;;;14.20;50.60;;;;;;4992663;28;20410;-74
2024/02/10 11:20:05;;;;;;;5.03;3.15;;;14.20;50.60;;;;;;4992813;28;20437;-76
2024/02/10 11:22:37;;;;;;;7.00;4.80;;;14.20;49.80;;;;;;4993159;28;20953;-75
2024/02/10 11:25:11;;;;;;;5.70;3.10;;;14.20;49.40;;;;;;4994358;28;20394;-76
2024/02/10 11:27:37;;;;;;;8.88;3.70;;;14.10;49.80;;;;;;4997010;28;20402;-76
2024/02/10 11:30:03;;;;;;;5.35;2.80;;;14.20;49.30;;;;;;5004240;28;20434;-76
2024/02/10 11:32:29;;;;;;;6.13;2.90;;;14.30;49.30;;;;;;5008087;28;20402;-75
2024/02/10 11:34:56;;;;;;;3.28;2.70;;;14.30;49.70;;;;;;5012200;28;20395;-75
2024/02/10 11:37:25;;;;;;;6.40;2.80;;;14.50;49.00;;;;;;5013074;28;20720;-74
2024/02/10 11:39:54;;;;;;;3.30;2.20;;;14.60;47.70;;;;;;5010091;28;20389;-75
2024/02/10 11:42:20;;;;;;;7.13;3.00;;;14.70;46.80;;;;;;5011682;28;20397;-75
2024/02/10 11:44:46;;;;;;;4.10;2.60;;;14.80;46.30;;;;;;5010327;28;21074;-76
2024/02/10 11:47:12;;;;;;;3.90;2.50;;;14.90;46.70;;;;;;5011753;28;20418;-75
2024/02/10 11:49:39;;;;;;;3.80;2.58;;;14.90;45.70;;;;;;5011335;28;20431;-76
2024/02/10 11:52:08;;;;;;;3.60;2.67;;;15.00;45.00;;;;;;5010599;28;20451;-75
2024/02/10 11:54:36;;;;;;;4.37;2.23;;;15.00;45.70;;;;;;5013479;28;20381;-76
2024/02/10 11:57:07;;;;;;;5.05;2.80;;;15.00;44.90;;;;;;5014364;28;20388;-76
2024/02/10 11:59:34;;;;;;;5.35;2.90;;;15.10;44.90;;;;;;5008241;28;20403;-76
2024/02/10 12:02:00;;;;;;;4.00;2.10;;;15.20;44.70;;;;;;5008797;28;20477;-76
2024/02/10 12:04:28;;;;;;;2.40;2.20;;;15.30;44.20;;;;;;5011445;28;20389;-75
2024/02/10 12:06:54;;;;;;;5.57;2.73;;;15.20;43.40;;;;;;5011436;28;20392;-76
2024/02/10 12:09:19;;;;;;;5.80;2.97;;;15.30;42.80;;;;;;4999965;28;20386;-72
2024/02/10 12:11:48;;;;;;;2.57;2.30;;;15.20;43.60;;;;;;5010654;28;20385;-70
2024/02/10 12:14:14;;;;;;;3.87;2.47;;;15.30;43.30;;;;;;4991258;28;20421;-73
2024/02/10 12:16:43;;;;;;;3.85;2.45;;;15.40;43.40;;;;;;4990401;28;20398;-73
2024/02/10 12:19:08;;;;;;;4.53;2.63;;;15.60;43.00;;;;;;5006900;28;20895;-72
2024/02/10 12:21:34;;;;;;;6.40;2.90;;;15.90;42.70;;;;;;5010185;28;20401;-72
2024/02/10 12:24:00;;;;;;;3.00;2.30;;;16.10;41.60;;;;;;5004939;28;20885;-71
2024/02/10 12:26:28;;;;;;;3.90;2.20;;;15.90;41.10;;;;;;4990752;28;20408;-71
2024/02/10 12:28:53;;;;;;;3.77;2.17;;;16.00;41.50;;;;;;4991862;28;20436;-74
2024/02/10 12:31:20;;;;;;;5.47;2.90;;;16.10;41.20;;;;;;4993585;28;20395;-72
2024/02/10 12:33:50;;;;;;;4.07;2.70;;;16.10;39.80;;;;;;5007047;28;20385;-71
2024/02/10 12:36:16;;;;;;;3.40;2.28;;;16.10;39.60;;;;;;5009010;28;20385;-73
2024/02/10 12:38:42;;;;;;;4.10;2.55;;;16.00;39.70;;;;;;5003629;28;20428;-73
2024/02/10 12:41:08;;;;;;;3.92;2.20;;;15.90;40.20;;;;;;4988068;28;20847;-72
2024/02/10 12:43:36;;;;;;;3.50;2.40;;;15.70;40.40;;;;;;4990187;28;20437;-73
2024/02/10 12:46:03;;;;;;;2.60;2.40;;;15.70;41.20;;;;;;4994709;28;20781;-72
2024/02/10 12:48:28;;;;;;;3.35;2.38;;;15.60;41.40;;;;;;5003076;28;20461;-73